createdAt,value
2018-04-29T00:00:39.545Z,16.62
2018-04-29T00:03:08.826Z,16.58
2018-04-29T00:05:37.176Z,16.52
2018-04-29T00:08:05.521Z,16.48
2018-04-29T00:10:33.872Z,16.50
2018-04-29T00:13:02.214Z,16.54
2018-04-29T00:15:30.565Z,16.53
2018-04-29T00:17:58.896Z,16.51
2018-04-29T00:20:27.257Z,16.53
2018-04-29T00:22:56.344Z,16.48
2018-04-29T00:25:24.700Z,16.50
2018-04-29T00:27:53.037Z,16.48
2018-04-29T00:30:21.397Z,16.52
2018-04-29T00:32:49.728Z,16.57
2018-04-29T00:35:18.082Z,16.64
2018-04-29T00:37:46.421Z,16.68
2018-04-29T00:40:14.772Z,16.69
2018-04-29T00:42:43.097Z,16.71
2018-04-29T00:45:11.457Z,16.73
2018-04-29T00:47:39.784Z,16.74
2018-04-29T00:50:08.137Z,16.76
2018-04-29T00:52:36.473Z,16.76
2018-04-29T00:55:04.817Z,16.76
2018-04-29T00:57:33.140Z,16.74
2018-04-29T01:00:01.562Z,16.69
2018-04-29T01:02:29.864Z,16.62
2018-04-29T01:04:58.213Z,16.52
2018-04-29T01:07:26.546Z,16.49
2018-04-29T01:09:54.868Z,16.45
2018-04-29T01:12:23.220Z,16.40
2018-04-29T01:14:51.544Z,16.38
2018-04-29T01:17:19.892Z,16.41
2018-04-29T01:19:48.225Z,16.43
2018-04-29T01:22:16.577Z,16.42
2018-04-29T01:24:44.901Z,16.44
2018-04-29T01:27:13.252Z,16.44
2018-04-29T01:29:41.602Z,16.44
2018-04-29T01:32:09.953Z,16.41
2018-04-29T01:34:38.283Z,16.38
2018-04-29T01:37:06.632Z,16.36
2018-04-29T01:39:34.960Z,16.38
2018-04-29T01:42:03.309Z,16.39
2018-04-29T01:44:31.638Z,16.36
2018-04-29T01:46:59.988Z,16.35
2018-04-29T01:49:28.317Z,16.32
2018-04-29T01:51:56.671Z,16.30
2018-04-29T01:54:24.990Z,16.27
2018-04-29T01:56:53.339Z,16.24
2018-04-29T01:59:21.671Z,16.17
2018-04-29T02:01:50.021Z,16.00
2018-04-29T02:04:18.355Z,15.94
2018-04-29T02:06:46.695Z,15.91
2018-04-29T02:09:15.030Z,15.81
2018-04-29T02:11:43.377Z,15.70
2018-04-29T02:14:11.706Z,15.63
2018-04-29T02:16:40.060Z,15.58
2018-04-29T02:19:08.393Z,15.55
2018-04-29T02:21:36.751Z,15.53
2018-04-29T02:24:05.073Z,15.55
2018-04-29T02:26:33.425Z,15.52
2018-04-29T02:29:01.757Z,15.44
2018-04-29T02:31:30.256Z,15.44
2018-04-29T02:33:58.440Z,15.46
2018-04-29T02:36:26.789Z,15.48
2018-04-29T02:38:55.116Z,15.43
2018-04-29T02:41:23.472Z,15.36
2018-04-29T02:43:51.801Z,15.30
2018-04-29T02:46:20.150Z,15.16
2018-04-29T02:48:48.473Z,15.03
2018-04-29T02:51:16.821Z,14.91
2018-04-29T02:53:45.148Z,14.85
2018-04-29T02:56:13.495Z,14.77
2018-04-29T02:58:41.825Z,14.78
2018-04-29T03:01:10.173Z,14.90
2018-04-29T03:03:38.509Z,14.89
2018-04-29T03:06:06.861Z,14.85
2018-04-29T03:08:35.193Z,14.87
2018-04-29T03:11:03.517Z,14.88
2018-04-29T03:13:31.878Z,14.88
2018-04-29T03:16:00.213Z,14.87
2018-04-29T03:18:28.563Z,14.80
2018-04-29T03:20:56.885Z,14.76
2018-04-29T03:23:25.240Z,14.75
2018-04-29T03:25:53.569Z,14.75
2018-04-29T03:28:21.916Z,14.71
2018-04-29T03:30:50.245Z,14.67
2018-04-29T03:33:18.596Z,14.64
2018-04-29T03:35:46.929Z,14.63
2018-04-29T03:38:15.272Z,14.60
2018-04-29T03:40:43.605Z,14.57
2018-04-29T03:43:11.952Z,14.55
2018-04-29T03:45:40.276Z,14.47
2018-04-29T03:48:08.628Z,14.36
2018-04-29T03:50:36.956Z,14.15
2018-04-29T03:53:05.296Z,13.98
2018-04-29T03:55:33.619Z,13.90
2018-04-29T03:58:13.792Z,13.93
2018-04-29T04:00:54.000Z,13.86
2018-04-29T04:03:33.935Z,13.84
2018-04-29T04:06:02.264Z,13.79
2018-04-29T04:08:30.630Z,13.85
2018-04-29T04:10:58.964Z,13.92
2018-04-29T04:13:27.319Z,13.95
2018-04-29T04:15:55.654Z,13.98
2018-04-29T04:18:24.005Z,14.00
2018-04-29T04:20:52.333Z,13.98
2018-04-29T04:23:20.671Z,13.88
2018-04-29T04:25:49.020Z,13.76
2018-04-29T04:28:17.381Z,13.60
2018-04-29T04:30:45.738Z,13.51
2018-04-29T04:33:14.091Z,13.46
2018-04-29T04:35:42.425Z,13.47
2018-04-29T04:38:10.776Z,13.47
2018-04-29T04:40:39.100Z,13.50
2018-04-29T04:43:07.465Z,13.60
2018-04-29T04:45:35.809Z,13.75
2018-04-29T04:48:04.172Z,14.00
2018-04-29T04:50:32.551Z,14.22
2018-04-29T04:53:00.865Z,14.35
2018-04-29T04:55:29.217Z,14.43
2018-04-29T04:57:57.575Z,14.49
2018-04-29T05:00:25.910Z,14.51
2018-04-29T05:02:54.260Z,14.60
2018-04-29T05:05:22.597Z,14.69
2018-04-29T05:07:50.945Z,14.74
2018-04-29T05:10:19.284Z,14.80
2018-04-29T05:12:47.630Z,14.80
2018-04-29T05:15:15.965Z,14.90
2018-04-29T05:17:44.312Z,14.91
2018-04-29T05:20:12.648Z,15.03
2018-04-29T05:22:40.996Z,15.17
2018-04-29T05:25:09.328Z,15.24
2018-04-29T05:27:37.688Z,15.32
2018-04-29T05:30:06.022Z,15.41
2018-04-29T05:32:34.376Z,15.42
2018-04-29T05:35:02.717Z,15.31
2018-04-29T05:37:31.076Z,15.11
2018-04-29T05:39:59.419Z,15.15
2018-04-29T05:42:27.793Z,15.31
2018-04-29T05:44:56.140Z,15.63
2018-04-29T05:47:24.477Z,15.99
2018-04-29T05:49:52.856Z,16.28
2018-04-29T05:52:21.173Z,16.46
2018-04-29T05:54:49.521Z,16.65
2018-04-29T05:57:17.844Z,16.72
2018-04-29T05:59:46.197Z,16.78
2018-04-29T06:02:14.530Z,16.95
2018-04-29T06:04:42.891Z,17.23
2018-04-29T06:07:11.222Z,17.46
2018-04-29T06:09:39.586Z,17.78
2018-04-29T06:12:08.815Z,17.87
2018-04-29T06:14:37.125Z,18.21
2018-04-29T06:17:05.473Z,18.48
2018-04-29T06:19:33.837Z,18.65
2018-04-29T06:22:02.173Z,18.85
2018-04-29T06:24:30.554Z,18.82
2018-04-29T06:26:58.891Z,18.77
2018-04-29T06:29:27.246Z,18.85
2018-04-29T06:31:55.633Z,18.83
2018-04-29T06:34:23.948Z,18.76
2018-04-29T06:36:52.287Z,18.77
2018-04-29T06:39:20.650Z,18.91
2018-04-29T06:41:48.994Z,18.88
2018-04-29T06:44:17.345Z,18.92
2018-04-29T06:46:45.708Z,19.00
2018-04-29T06:49:14.046Z,19.04
2018-04-29T06:51:42.381Z,19.12
2018-04-29T06:54:10.737Z,19.30
2018-04-29T06:56:39.068Z,19.25
2018-04-29T06:59:07.421Z,19.30
2018-04-29T07:01:35.807Z,19.44
2018-04-29T07:04:04.125Z,19.42
2018-04-29T07:06:33.198Z,19.41
2018-04-29T07:09:01.562Z,19.38
2018-04-29T07:11:29.889Z,19.26
2018-04-29T07:13:58.252Z,19.23
2018-04-29T07:16:26.685Z,19.34
2018-04-29T07:18:55.037Z,19.36
2018-04-29T07:21:23.383Z,19.09
2018-04-29T07:23:51.733Z,19.02
2018-04-29T07:26:20.061Z,19.06
2018-04-29T07:28:48.681Z,19.23
2018-04-29T07:31:17.098Z,19.22
2018-04-29T07:33:45.478Z,19.21
2018-04-29T07:36:14.122Z,18.90
2018-04-29T07:38:43.558Z,18.80
2018-04-29T07:41:12.139Z,18.82
2018-04-29T07:43:40.758Z,18.88
2018-04-29T07:46:09.289Z,19.06
2018-04-29T07:48:37.629Z,19.15
2018-04-29T07:51:06.087Z,19.15
2018-04-29T07:53:35.105Z,19.23
2018-04-29T07:56:04.900Z,19.32
2018-04-29T07:58:33.395Z,19.49
2018-04-29T08:01:02.067Z,19.56
2018-04-29T08:03:30.393Z,19.55
2018-04-29T08:05:58.744Z,19.59
2018-04-29T08:08:27.088Z,19.54
2018-04-29T08:10:55.458Z,19.52
2018-04-29T08:13:24.363Z,19.41
2018-04-29T08:15:53.098Z,19.16
2018-04-29T08:18:21.436Z,18.97
2018-04-29T08:20:49.836Z,18.99
2018-04-29T08:23:18.215Z,18.94
2018-04-29T08:25:48.040Z,18.90
2018-04-29T08:28:16.706Z,18.92
2018-04-29T08:30:45.120Z,19.08
2018-04-29T08:33:13.608Z,19.13
2018-04-29T08:35:42.088Z,19.28
2018-04-29T08:38:10.446Z,19.39
2018-04-29T08:40:38.805Z,19.50
2018-04-29T08:43:08.204Z,19.50
2018-04-29T08:45:37.040Z,19.50
2018-04-29T08:48:05.477Z,19.61
2018-04-29T08:50:35.029Z,19.76
2018-04-29T08:53:03.385Z,19.72
2018-04-29T08:55:32.146Z,19.85
2018-04-29T08:58:00.977Z,19.92
2018-04-29T09:00:31.016Z,19.77
2018-04-29T09:03:00.716Z,19.71
2018-04-29T09:05:29.608Z,19.76
2018-04-29T09:07:57.940Z,19.81
2018-04-29T09:10:26.297Z,19.91
2018-04-29T09:12:54.744Z,19.98
2018-04-29T09:15:23.104Z,20.05
2018-04-29T09:17:51.441Z,20.08
2018-04-29T09:20:19.796Z,20.11
2018-04-29T09:22:48.128Z,20.17
2018-04-29T09:25:16.489Z,20.29
2018-04-29T09:27:44.824Z,20.52
2018-04-29T09:30:13.209Z,20.58
2018-04-29T09:32:41.952Z,20.51
2018-04-29T09:35:10.309Z,20.59
2018-04-29T09:37:38.637Z,20.80
2018-04-29T09:40:06.980Z,20.96
2018-04-29T09:42:35.314Z,21.07
2018-04-29T09:45:03.649Z,21.13
2018-04-29T09:47:31.981Z,21.05
2018-04-29T09:50:00.320Z,20.82
2018-04-29T09:52:28.636Z,20.66
2018-04-29T09:54:56.984Z,20.74
2018-04-29T09:57:25.321Z,20.92
2018-04-29T09:59:53.645Z,21.04
2018-04-29T10:02:23.900Z,21.22
2018-04-29T10:04:52.223Z,21.50
2018-04-29T10:07:20.572Z,21.70
2018-04-29T10:09:48.901Z,21.74
2018-04-29T10:12:17.250Z,21.79
2018-04-29T10:14:45.577Z,21.86
2018-04-29T10:17:13.930Z,21.83
2018-04-29T10:19:42.252Z,21.79
2018-04-29T10:22:10.597Z,21.77
2018-04-29T10:24:39.006Z,21.74
2018-04-29T10:27:07.277Z,21.69
2018-04-29T10:29:35.604Z,21.62
2018-04-29T10:32:03.956Z,21.52
2018-04-29T10:34:32.285Z,21.47
2018-04-29T10:37:00.632Z,21.46
2018-04-29T10:39:28.965Z,21.56
2018-04-29T10:41:57.312Z,21.66
2018-04-29T10:44:25.640Z,21.67
2018-04-29T10:46:53.993Z,21.65
2018-04-29T10:49:22.325Z,21.76
2018-04-29T10:51:50.668Z,21.84
2018-04-29T10:54:19.001Z,21.88
2018-04-29T10:56:47.540Z,21.99
2018-04-29T10:59:15.673Z,22.06
2018-04-29T11:01:44.029Z,22.05
2018-04-29T11:04:12.374Z,22.11
2018-04-29T11:06:40.692Z,22.16
2018-04-29T11:09:09.020Z,22.21
2018-04-29T11:11:37.369Z,22.27
2018-04-29T11:14:05.690Z,22.37
2018-04-29T11:16:34.031Z,22.39
2018-04-29T11:19:02.357Z,22.39
2018-04-29T11:21:30.707Z,22.39
2018-04-29T11:23:59.036Z,22.36
2018-04-29T11:26:27.389Z,22.29
2018-04-29T11:28:55.708Z,22.37
2018-04-29T11:31:24.057Z,22.48
2018-04-29T11:33:52.519Z,22.54
2018-04-29T11:36:20.788Z,22.77
2018-04-29T11:38:49.116Z,22.92
2018-04-29T11:41:17.464Z,22.83
2018-04-29T11:43:45.790Z,22.72
2018-04-29T11:46:14.140Z,22.64
2018-04-29T11:48:42.455Z,22.50
2018-04-29T11:51:10.805Z,22.35
2018-04-29T11:53:39.132Z,22.28
2018-04-29T11:56:07.486Z,22.23
2018-04-29T11:58:35.812Z,22.23
2018-04-29T12:01:04.145Z,22.32
2018-04-29T12:03:32.489Z,22.53
2018-04-29T12:06:00.808Z,22.56
2018-04-29T12:08:29.157Z,22.48
2018-04-29T12:10:57.480Z,22.49
2018-04-29T12:13:25.825Z,22.58
2018-04-29T12:15:54.151Z,22.61
2018-04-29T12:18:22.498Z,22.64
2018-04-29T12:20:50.817Z,22.72
2018-04-29T12:23:19.169Z,22.65
2018-04-29T12:25:47.492Z,22.69
2018-04-29T12:28:15.840Z,22.80
2018-04-29T12:30:44.161Z,22.96
2018-04-29T12:33:12.509Z,23.05
2018-04-29T12:35:40.835Z,23.10
2018-04-29T12:38:09.180Z,23.24
2018-04-29T12:40:37.505Z,23.39
2018-04-29T12:43:05.848Z,23.50
2018-04-29T12:45:34.168Z,23.61
2018-04-29T12:48:02.513Z,23.58
2018-04-29T12:50:30.840Z,23.61
2018-04-29T12:52:59.181Z,23.66
2018-04-29T12:55:27.499Z,23.75
2018-04-29T12:57:55.845Z,23.62
2018-04-29T13:00:24.189Z,23.48
2018-04-29T13:02:52.526Z,23.39
2018-04-29T13:05:20.841Z,23.42
2018-04-29T13:07:49.188Z,23.40
2018-04-29T13:10:17.515Z,23.42
2018-04-29T13:12:45.860Z,23.60
2018-04-29T13:15:14.183Z,23.72
2018-04-29T13:17:42.522Z,23.81
2018-04-29T13:20:10.844Z,23.91
2018-04-29T13:22:39.197Z,24.00
2018-04-29T13:25:07.524Z,24.06
2018-04-29T13:27:35.872Z,24.20
2018-04-29T13:30:04.193Z,24.26
2018-04-29T13:32:32.532Z,24.27
2018-04-29T13:35:00.856Z,24.13
2018-04-29T13:37:29.191Z,24.16
2018-04-29T13:39:57.520Z,24.23
2018-04-29T13:42:25.867Z,24.26
2018-04-29T13:44:54.179Z,24.26
2018-04-29T13:47:22.528Z,24.20
2018-04-29T13:49:50.853Z,24.18
2018-04-29T13:52:19.258Z,24.13
2018-04-29T13:54:47.515Z,24.13
2018-04-29T13:57:15.855Z,24.19
2018-04-29T13:59:44.204Z,24.14
2018-04-29T14:02:12.528Z,24.10
2018-04-29T14:04:40.871Z,24.06
2018-04-29T14:07:09.211Z,24.05
2018-04-29T14:09:37.528Z,24.05
2018-04-29T14:12:05.857Z,24.04
2018-04-29T14:14:34.196Z,24.09
2018-04-29T14:17:02.520Z,24.19
2018-04-29T14:19:30.865Z,24.13
2018-04-29T14:21:59.185Z,23.95
2018-04-29T14:24:27.536Z,23.88
2018-04-29T14:26:55.857Z,23.77
2018-04-29T14:29:24.203Z,23.60
2018-04-29T14:31:52.533Z,23.46
2018-04-29T14:34:20.877Z,23.33
2018-04-29T14:36:49.209Z,23.05
2018-04-29T14:39:17.553Z,22.78
2018-04-29T14:41:45.878Z,22.62
2018-04-29T14:44:14.219Z,22.49
2018-04-29T14:46:42.540Z,22.37
2018-04-29T14:49:10.884Z,22.31
2018-04-29T14:51:39.210Z,22.26
2018-04-29T14:54:07.561Z,22.26
2018-04-29T14:56:35.881Z,22.40
2018-04-29T14:59:04.224Z,22.53
2018-04-29T15:01:32.557Z,22.60
2018-04-29T15:04:00.909Z,22.59
2018-04-29T15:06:29.228Z,22.53
2018-04-29T15:08:57.568Z,22.50
2018-04-29T15:11:25.895Z,22.42
2018-04-29T15:13:54.245Z,22.31
2018-04-29T15:16:22.565Z,22.32
2018-04-29T15:18:59.688Z,22.39
2018-04-29T15:21:28.013Z,22.42
2018-04-29T15:23:56.383Z,22.39
2018-04-29T15:26:24.689Z,22.38
2018-04-29T15:28:53.049Z,22.39
2018-04-29T15:31:21.364Z,22.40
2018-04-29T15:33:49.705Z,22.32
2018-04-29T15:36:18.025Z,22.29
2018-04-29T15:38:46.373Z,22.20
2018-04-29T15:41:14.693Z,22.21
2018-04-29T15:43:43.052Z,22.18
2018-04-29T15:46:11.377Z,22.12
2018-04-29T15:48:39.729Z,22.06
2018-04-29T15:51:08.052Z,21.96
2018-04-29T15:53:36.401Z,21.86
2018-04-29T15:56:04.729Z,21.85
2018-04-29T15:58:33.075Z,21.88
2018-04-29T16:01:01.401Z,21.88
2018-04-29T16:03:29.793Z,21.92
2018-04-29T16:05:58.060Z,21.97
2018-04-29T16:08:26.389Z,22.97
2018-04-29T16:10:54.732Z,22.38
2018-04-29T16:13:23.066Z,22.10
2018-04-29T16:15:51.417Z,22.01
2018-04-29T16:18:19.744Z,21.98
2018-04-29T16:20:48.090Z,22.01
2018-04-29T16:23:16.469Z,22.01
2018-04-29T16:25:46.577Z,22.07
2018-04-29T16:28:15.565Z,22.16
2018-04-29T16:30:45.597Z,22.24
2018-04-29T16:33:14.520Z,22.27
2018-04-29T16:35:44.574Z,22.36
2018-04-29T16:38:14.640Z,22.41
2018-04-29T16:40:42.901Z,22.47
2018-04-29T16:43:11.229Z,22.40
2018-04-29T16:45:39.568Z,22.29
2018-04-29T16:54:17.513Z,21.93
2018-04-29T16:56:45.841Z,21.95
2018-04-29T16:59:14.185Z,21.90
2018-04-29T17:01:42.513Z,21.93
2018-04-29T17:04:10.860Z,21.93
2018-04-29T17:06:40.796Z,21.92
2018-04-29T17:09:09.144Z,21.90
2018-04-29T17:11:37.478Z,21.88
2018-04-29T17:14:05.809Z,21.92
2018-04-29T17:16:34.165Z,21.94
2018-04-29T17:19:02.489Z,22.00
2018-04-29T17:21:30.823Z,22.04
2018-04-29T17:23:59.153Z,22.03
2018-04-29T17:26:27.496Z,22.02
2018-04-29T17:28:55.829Z,22.03
2018-04-29T17:31:24.176Z,22.01
2018-04-29T17:33:52.497Z,22.00
2018-04-29T17:36:20.846Z,21.97
2018-04-29T17:38:49.169Z,22.01
2018-04-29T17:41:17.504Z,21.97
2018-04-29T17:43:45.820Z,21.95
2018-04-29T17:46:46.641Z,21.83
2018-04-29T17:49:14.960Z,21.79
2018-04-29T17:51:43.304Z,21.73
2018-04-29T17:54:11.625Z,21.74
2018-04-29T17:59:48.237Z,21.63
2018-04-29T18:02:16.556Z,21.70
2018-04-29T18:04:44.888Z,21.71
2018-04-29T18:07:13.218Z,21.79
2018-04-29T18:09:41.577Z,21.80
2018-04-29T18:18:29.974Z,21.29
2018-04-29T18:20:58.332Z,21.69
2018-04-29T19:07:22.480Z,19.89
2018-04-29T19:09:50.796Z,19.91
2018-04-29T19:12:19.140Z,19.90
2018-04-29T19:14:47.451Z,19.86
2018-04-29T19:17:15.801Z,19.83
2018-04-29T19:19:44.121Z,19.80
2018-04-29T19:22:12.480Z,19.75
2018-04-29T19:24:40.796Z,19.73
2018-04-29T19:27:09.138Z,19.70
2018-04-29T19:29:37.460Z,19.67
2018-04-29T19:32:05.805Z,19.64
2018-04-29T19:34:34.124Z,19.59
2018-04-29T19:37:02.501Z,19.58
2018-04-29T19:39:30.805Z,19.57
2018-04-29T19:41:59.149Z,19.55
2018-04-29T19:44:27.477Z,19.51
2018-04-29T19:46:55.827Z,19.49
2018-04-29T19:49:24.136Z,19.49
2018-04-29T19:51:52.480Z,19.45
2018-04-29T19:54:20.792Z,19.40
2018-04-29T19:56:49.132Z,19.38
2018-04-29T19:59:17.453Z,19.38
2018-04-29T20:01:45.797Z,19.37
2018-04-29T20:04:14.107Z,19.39
2018-04-29T20:06:42.457Z,19.30
2018-04-29T20:09:10.780Z,19.27
2018-04-29T20:11:39.119Z,19.24
2018-04-29T20:14:07.445Z,19.21
2018-04-29T20:16:35.780Z,19.25
2018-04-29T20:19:04.103Z,19.23
2018-04-29T20:21:32.458Z,19.19
2018-04-29T20:24:00.767Z,19.15
2018-04-29T20:26:29.106Z,19.06
2018-04-29T20:28:57.440Z,18.99
2018-04-29T20:31:25.797Z,18.95
2018-04-29T20:33:54.112Z,18.97
2018-04-29T20:36:22.477Z,18.96
2018-04-29T20:38:50.788Z,18.99
2018-04-29T20:41:19.147Z,19.02
2018-04-29T20:43:47.468Z,19.02
2018-04-29T20:46:15.803Z,19.00
2018-04-29T20:48:44.122Z,19.00
2018-04-29T20:51:12.440Z,19.05
2018-04-29T20:53:40.781Z,19.03
2018-04-29T20:56:09.100Z,19.05
2018-04-29T20:58:37.435Z,19.11
2018-04-29T21:01:05.748Z,19.17
2018-04-29T21:03:34.099Z,19.22
2018-04-29T21:06:02.417Z,19.21
2018-04-29T21:08:30.760Z,19.23
2018-04-29T21:10:59.091Z,19.21
2018-04-29T21:13:27.434Z,19.25
2018-04-29T21:15:55.751Z,19.27
2018-04-29T21:18:24.092Z,19.89
2018-04-29T21:20:52.415Z,19.47
2018-04-29T21:23:20.748Z,19.29
2018-04-29T21:25:49.080Z,19.23
2018-04-29T21:28:17.427Z,19.20
2018-04-29T21:30:45.747Z,19.15
2018-04-29T21:33:14.084Z,19.07
2018-04-29T21:35:42.411Z,18.99
2018-04-29T21:38:10.751Z,18.83
2018-04-29T21:40:39.069Z,18.81
2018-04-29T21:43:07.408Z,18.69
2018-04-29T21:45:35.729Z,18.64
2018-04-29T21:48:04.068Z,18.61
2018-04-29T21:50:32.384Z,18.60
2018-04-29T21:53:00.726Z,18.60
2018-04-29T21:55:29.048Z,18.59
2018-04-29T21:57:57.393Z,18.58
2018-04-29T22:00:25.713Z,18.54
2018-04-29T22:02:54.057Z,18.58
2018-04-29T22:05:22.373Z,18.61
2018-04-29T22:07:50.722Z,18.64
2018-04-29T22:10:19.028Z,18.62
2018-04-29T22:12:47.368Z,18.57
2018-04-29T22:15:15.692Z,18.59
2018-04-29T22:17:44.036Z,18.52
2018-04-29T22:20:12.356Z,18.54
2018-04-29T22:22:40.693Z,18.60
2018-04-29T22:25:09.008Z,18.67
2018-04-29T22:27:37.361Z,18.61
2018-04-29T22:30:05.664Z,18.57
2018-04-29T22:32:34.000Z,18.63
2018-04-29T22:35:02.323Z,18.65
2018-04-29T22:37:30.665Z,18.61
2018-04-29T22:39:58.984Z,18.63
2018-04-29T22:42:27.338Z,18.59
2018-04-29T22:44:55.656Z,18.61
2018-04-29T22:47:23.992Z,18.59
2018-04-29T22:49:52.312Z,18.59
2018-04-29T22:52:20.659Z,18.58
2018-04-29T22:54:48.981Z,18.53
2018-04-29T22:57:17.296Z,18.47
2018-04-29T22:59:45.642Z,18.38
2018-04-29T23:02:13.959Z,18.30
2018-04-29T23:04:42.287Z,18.32
2018-04-29T23:07:10.605Z,18.32
2018-04-29T23:09:39.148Z,18.33
2018-04-29T23:12:07.464Z,18.33
2018-04-29T23:14:35.801Z,18.32
2018-04-29T23:17:04.125Z,18.23
2018-04-29T23:19:32.460Z,18.20
2018-04-29T23:22:00.785Z,18.24
2018-04-29T23:24:29.125Z,18.25
2018-04-29T23:26:57.440Z,18.26
2018-04-29T23:29:25.785Z,18.30
2018-04-29T23:31:54.096Z,18.27
2018-04-29T23:34:22.436Z,18.29
2018-04-29T23:36:50.758Z,18.32
2018-04-29T23:39:19.093Z,18.23
2018-04-29T23:41:47.412Z,18.17
2018-04-29T23:44:15.758Z,18.14
2018-04-29T23:46:44.076Z,18.10
2018-04-29T23:49:12.412Z,18.01
2018-04-29T23:51:40.727Z,17.98
2018-04-29T23:54:09.066Z,17.94
2018-04-29T23:56:37.385Z,17.91
2018-04-29T23:59:05.724Z,17.84
